sensor_id;sensor_type;location;lat;lon;timestamp;temperature;humidity
63899;HTU21D;50070;-32.946;-60.652;2023-02-28T00:00:50;32.13;36.95
63899;HTU21D;50070;-32.946;-60.652;2023-02-28T00:03:17;32.03;37.18
63899;HTU21D;50070;-32.946;-60.652;2023-02-28T00:05:43;32.02;37.30
63899;HTU21D;50070;-32.946;-60.652;2023-02-28T00:08:10;32.02;37.23
63899;HTU21D;50070;-32.946;-60.652;2023-02-28T00:10:38;31.94;37.46
63899;HTU21D;50070;-32.946;-60.652;2023-02-28T00:13:06;31.98;37.46
63899;HTU21D;50070;-32.946;-60.652;2023-02-28T00:15:33;31.87;37.71
63899;HTU21D;50070;-32.946;-60.652;2023-02-28T00:18:02;31.90;37.51
63899;HTU21D;50070;-32.946;-60.652;2023-02-28T00:20:29;31.85;37.66
63899;HTU21D;50070;-32.946;-60.652;2023-02-28T00:22:56;31.84;37.75
63899;HTU21D;50070;-32.946;-60.652;2023-02-28T00:25:24;31.71;38.39
63899;HTU21D;50070;-32.946;-60.652;2023-02-28T00:27:52;31.79;38.22
63899;HTU21D;50070;-32.946;-60.652;2023-02-28T00:30:21;31.68;38.20
63899;HTU21D;50070;-32.946;-60.652;2023-02-28T00:32:49;31.73;38.27
63899;HTU21D;50070;-32.946;-60.652;2023-02-28T00:35:17;31.69;37.70
63899;HTU21D;50070;-32.946;-60.652;2023-02-28T00:37:44;31.66;37.90
63899;HTU21D;50070;-32.946;-60.652;2023-02-28T00:40:11;31.43;38.22
63899;HTU21D;50070;-32.946;-60.652;2023-02-28T00:42:38;31.42;38.38
63899;HTU21D;50070;-32.946;-60.652;2023-02-28T00:45:06;31.38;38.34
63899;HTU21D;50070;-32.946;-60.652;2023-02-28T00:47:34;31.36;37.92
63899;HTU21D;50070;-32.946;-60.652;2023-02-28T00:50:01;31.52;37.93
63899;HTU21D;50070;-32.946;-60.652;2023-02-28T00:52:28;31.57;37.46
63899;HTU21D;50070;-32.946;-60.652;2023-02-28T00:54:55;31.52;37.72
63899;HTU21D;50070;-32.946;-60.652;2023-02-28T00:57:22;31.34;38.08
63899;HTU21D;50070;-32.946;-60.652;2023-02-28T00:59:49;31.39;37.98
63899;HTU21D;50070;-32.946;-60.652;2023-02-28T01:02:16;31.41;37.74
63899;HTU21D;50070;-32.946;-60.652;2023-02-28T01:04:46;31.33;37.94
63899;HTU21D;50070;-32.946;-60.652;2023-02-28T01:07:13;31.54;37.54
63899;HTU21D;50070;-32.946;-60.652;2023-02-28T01:09:41;31.12;38.01
63899;HTU21D;50070;-32.946;-60.652;2023-02-28T01:12:08;31.34;38.20
63899;HTU21D;50070;-32.946;-60.652;2023-02-28T01:14:35;31.29;38.34
63899;HTU21D;50070;-32.946;-60.652;2023-02-28T01:17:02;31.10;39.27
63899;HTU21D;50070;-32.946;-60.652;2023-02-28T01:19:30;31.01;39.81
63899;HTU21D;50070;-32.946;-60.652;2023-02-28T01:21:57;31.19;38.69
63899;HTU21D;50070;-32.946;-60.652;2023-02-28T01:24:25;31.16;38.24
63899;HTU21D;50070;-32.946;-60.652;2023-02-28T01:26:52;31.27;37.89
63899;HTU21D;50070;-32.946;-60.652;2023-02-28T01:29:19;31.31;37.48
63899;HTU21D;50070;-32.946;-60.652;2023-02-28T01:31:46;31.43;36.95
63899;HTU21D;50070;-32.946;-60.652;2023-02-28T01:34:13;31.36;37.30
63899;HTU21D;50070;-32.946;-60.652;2023-02-28T01:36:39;31.37;37.41
63899;HTU21D;50070;-32.946;-60.652;2023-02-28T01:39:06;31.37;37.38
63899;HTU21D;50070;-32.946;-60.652;2023-02-28T01:41:33;31.34;37.05
63899;HTU21D;50070;-32.946;-60.652;2023-02-28T01:44:05;31.07;39.44
63899;HTU21D;50070;-32.946;-60.652;2023-02-28T01:46:34;30.82;40.89
63899;HTU21D;50070;-32.946;-60.652;2023-02-28T01:49:11;30.86;39.64
63899;HTU21D;50070;-32.946;-60.652;2023-02-28T01:51:48;30.86;39.41
63899;HTU21D;50070;-32.946;-60.652;2023-02-28T01:54:30;30.78;39.47
63899;HTU21D;50070;-32.946;-60.652;2023-02-28T01:57:10;30.92;39.01
63899;HTU21D;50070;-32.946;-60.652;2023-02-28T01:59:42;30.91;38.88
63899;HTU21D;50070;-32.946;-60.652;2023-02-28T02:02:18;30.77;39.98
63899;HTU21D;50070;-32.946;-60.652;2023-02-28T02:04:55;30.97;39.43
63899;HTU21D;50070;-32.946;-60.652;2023-02-28T02:07:23;30.53;40.13
63899;HTU21D;50070;-32.946;-60.652;2023-02-28T02:10:11;30.86;37.84
63899;HTU21D;50070;-32.946;-60.652;2023-02-28T02:40:16;30.93;36.98
63899;HTU21D;50070;-32.946;-60.652;2023-02-28T02:43:07;30.77;37.37
63899;HTU21D;50070;-32.946;-60.652;2023-02-28T02:45:42;31.15;36.91
63899;HTU21D;50070;-32.946;-60.652;2023-02-28T02:48:13;31.11;36.30
63899;HTU21D;50070;-32.946;-60.652;2023-02-28T02:50:48;31.01;36.56
63899;HTU21D;50070;-32.946;-60.652;2023-02-28T02:53:18;31.06;36.49
63899;HTU21D;50070;-32.946;-60.652;2023-02-28T02:55:50;30.82;37.04
63899;HTU21D;50070;-32.946;-60.652;2023-02-28T02:58:24;30.84;36.90
63899;HTU21D;50070;-32.946;-60.652;2023-02-28T03:00:54;31.00;36.76
63899;HTU21D;50070;-32.946;-60.652;2023-02-28T03:03:23;31.04;36.76
63899;HTU21D;50070;-32.946;-60.652;2023-02-28T03:06:00;31.02;36.93
63899;HTU21D;50070;-32.946;-60.652;2023-02-28T03:08:33;31.09;36.93
63899;HTU21D;50070;-32.946;-60.652;2023-02-28T03:11:05;31.07;36.92
63899;HTU21D;50070;-32.946;-60.652;2023-02-28T03:25:23;30.51;38.08
63899;HTU21D;50070;-32.946;-60.652;2023-02-28T03:33:50;30.50;38.17
63899;HTU21D;50070;-32.946;-60.652;2023-02-28T03:36:26;30.37;38.58
63899;HTU21D;50070;-32.946;-60.652;2023-02-28T03:39:06;30.39;38.48
63899;HTU21D;50070;-32.946;-60.652;2023-02-28T03:44:25;30.06;39.06
63899;HTU21D;50070;-32.946;-60.652;2023-02-28T03:47:00;30.17;38.35
63899;HTU21D;50070;-32.946;-60.652;2023-02-28T03:49:34;30.03;38.91
63899;HTU21D;50070;-32.946;-60.652;2023-02-28T03:52:05;30.03;39.23
63899;HTU21D;50070;-32.946;-60.652;2023-02-28T03:54:40;29.95;39.23
63899;HTU21D;50070;-32.946;-60.652;2023-02-28T03:57:32;29.86;39.32
63899;HTU21D;50070;-32.946;-60.652;2023-02-28T04:02:40;29.70;39.86
63899;HTU21D;50070;-32.946;-60.652;2023-02-28T04:05:08;29.90;39.52
63899;HTU21D;50070;-32.946;-60.652;2023-02-28T04:07:35;29.72;39.97
63899;HTU21D;50070;-32.946;-60.652;2023-02-28T04:10:03;29.68;40.13
63899;HTU21D;50070;-32.946;-60.652;2023-02-28T04:12:30;29.63;40.54
63899;HTU21D;50070;-32.946;-60.652;2023-02-28T04:14:57;29.85;40.02
63899;HTU21D;50070;-32.946;-60.652;2023-02-28T04:17:24;29.80;40.20
63899;HTU21D;50070;-32.946;-60.652;2023-02-28T04:19:51;29.62;40.71
63899;HTU21D;50070;-32.946;-60.652;2023-02-28T04:22:17;29.80;40.42
63899;HTU21D;50070;-32.946;-60.652;2023-02-28T04:24:44;29.54;41.16
63899;HTU21D;50070;-32.946;-60.652;2023-02-28T04:27:11;29.47;41.46
63899;HTU21D;50070;-32.946;-60.652;2023-02-28T04:29:38;29.76;40.67
63899;HTU21D;50070;-32.946;-60.652;2023-02-28T04:32:05;29.81;40.67
63899;HTU21D;50070;-32.946;-60.652;2023-02-28T04:34:32;29.80;40.67
63899;HTU21D;50070;-32.946;-60.652;2023-02-28T04:36:59;29.78;40.83
63899;HTU21D;50070;-32.946;-60.652;2023-02-28T04:39:26;29.67;41.10
63899;HTU21D;50070;-32.946;-60.652;2023-02-28T04:41:56;29.80;40.83
63899;HTU21D;50070;-32.946;-60.652;2023-02-28T04:44:23;29.90;40.44
63899;HTU21D;50070;-32.946;-60.652;2023-02-28T04:46:50;29.87;40.53
63899;HTU21D;50070;-32.946;-60.652;2023-02-28T04:49:16;29.80;40.85
63899;HTU21D;50070;-32.946;-60.652;2023-02-28T04:51:43;29.74;40.92
63899;HTU21D;50070;-32.946;-60.652;2023-02-28T04:54:10;29.67;41.00
63899;HTU21D;50070;-32.946;-60.652;2023-02-28T04:56:37;29.62;41.26
63899;HTU21D;50070;-32.946;-60.652;2023-02-28T04:59:04;29.62;41.00
63899;HTU21D;50070;-32.946;-60.652;2023-02-28T05:01:32;29.83;40.54
63899;HTU21D;50070;-32.946;-60.652;2023-02-28T05:04:01;29.89;40.39
63899;HTU21D;50070;-32.946;-60.652;2023-02-28T05:06:33;29.89;40.20
63899;HTU21D;50070;-32.946;-60.652;2023-02-28T05:09:00;29.77;40.32
63899;HTU21D;50070;-32.946;-60.652;2023-02-28T05:11:32;29.80;40.23
63899;HTU21D;50070;-32.946;-60.652;2023-02-28T05:14:10;29.89;39.94
63899;HTU21D;50070;-32.946;-60.652;2023-02-28T05:16:37;29.73;40.11
63899;HTU21D;50070;-32.946;-60.652;2023-02-28T05:19:04;29.57;40.48
63899;HTU21D;50070;-32.946;-60.652;2023-02-28T05:21:35;29.65;40.41
63899;HTU21D;50070;-32.946;-60.652;2023-02-28T05:24:04;29.57;40.59
63899;HTU21D;50070;-32.946;-60.652;2023-02-28T05:26:35;29.31;41.43
63899;HTU21D;50070;-32.946;-60.652;2023-02-28T05:29:02;29.29;41.28
63899;HTU21D;50070;-32.946;-60.652;2023-02-28T05:31:29;29.45;40.92
63899;HTU21D;50070;-32.946;-60.652;2023-02-28T05:33:55;29.52;40.77
63899;HTU21D;50070;-32.946;-60.652;2023-02-28T05:36:22;29.50;40.94
63899;HTU21D;50070;-32.946;-60.652;2023-02-28T05:38:50;29.36;41.39
63899;HTU21D;50070;-32.946;-60.652;2023-02-28T05:41:18;29.36;42.11
63899;HTU21D;50070;-32.946;-60.652;2023-02-28T05:43:45;29.08;43.21
63899;HTU21D;50070;-32.946;-60.652;2023-02-28T05:46:12;29.21;42.01
63899;HTU21D;50070;-32.946;-60.652;2023-02-28T05:48:41;29.18;42.19
63899;HTU21D;50070;-32.946;-60.652;2023-02-28T05:51:09;29.21;42.51
63899;HTU21D;50070;-32.946;-60.652;2023-02-28T05:53:36;29.19;41.32
63899;HTU21D;50070;-32.946;-60.652;2023-02-28T05:56:03;29.16;41.48
63899;HTU21D;50070;-32.946;-60.652;2023-02-28T05:58:30;29.18;41.49
63899;HTU21D;50070;-32.946;-60.652;2023-02-28T06:00:58;29.28;40.60
63899;HTU21D;50070;-32.946;-60.652;2023-02-28T06:03:25;29.19;41.36
63899;HTU21D;50070;-32.946;-60.652;2023-02-28T06:05:52;28.99;42.69
63899;HTU21D;50070;-32.946;-60.652;2023-02-28T06:08:18;28.77;43.84
63899;HTU21D;50070;-32.946;-60.652;2023-02-28T06:10:45;28.76;43.86
63899;HTU21D;50070;-32.946;-60.652;2023-02-28T06:13:12;28.48;44.86
63899;HTU21D;50070;-32.946;-60.652;2023-02-28T06:15:39;28.59;44.54
63899;HTU21D;50070;-32.946;-60.652;2023-02-28T06:18:07;28.75;44.45
63899;HTU21D;50070;-32.946;-60.652;2023-02-28T06:20:34;28.63;44.84
63899;HTU21D;50070;-32.946;-60.652;2023-02-28T06:23:02;28.72;44.72
63899;HTU21D;50070;-32.946;-60.652;2023-02-28T06:25:29;28.53;44.83
63899;HTU21D;50070;-32.946;-60.652;2023-02-28T06:27:55;28.48;45.24
63899;HTU21D;50070;-32.946;-60.652;2023-02-28T06:30:22;28.43;45.19
63899;HTU21D;50070;-32.946;-60.652;2023-02-28T06:32:51;28.53;45.20
63899;HTU21D;50070;-32.946;-60.652;2023-02-28T06:35:18;28.45;45.87
63899;HTU21D;50070;-32.946;-60.652;2023-02-28T06:37:45;28.35;46.06
63899;HTU21D;50070;-32.946;-60.652;2023-02-28T06:40:13;28.33;45.92
63899;HTU21D;50070;-32.946;-60.652;2023-02-28T06:42:40;28.45;45.82
63899;HTU21D;50070;-32.946;-60.652;2023-02-28T06:45:10;28.39;46.30
63899;HTU21D;50070;-32.946;-60.652;2023-02-28T06:47:38;28.39;46.22
63899;HTU21D;50070;-32.946;-60.652;2023-02-28T06:50:06;28.25;47.20
63899;HTU21D;50070;-32.946;-60.652;2023-02-28T06:52:34;28.39;47.40
63899;HTU21D;50070;-32.946;-60.652;2023-02-28T06:55:07;28.33;47.91
63899;HTU21D;50070;-32.946;-60.652;2023-02-28T06:57:35;28.09;49.27
63899;HTU21D;50070;-32.946;-60.652;2023-02-28T07:00:06;28.12;49.47
63899;HTU21D;50070;-32.946;-60.652;2023-02-28T07:02:35;28.35;48.48
63899;HTU21D;50070;-32.946;-60.652;2023-02-28T07:05:03;28.41;48.46
63899;HTU21D;50070;-32.946;-60.652;2023-02-28T07:07:30;28.06;49.45
63899;HTU21D;50070;-32.946;-60.652;2023-02-28T07:09:57;28.10;49.47
63899;HTU21D;50070;-32.946;-60.652;2023-02-28T07:12:24;27.97;49.31
63899;HTU21D;50070;-32.946;-60.652;2023-02-28T07:14:50;27.99;49.75
63899;HTU21D;50070;-32.946;-60.652;2023-02-28T07:17:17;27.79;50.52
63899;HTU21D;50070;-32.946;-60.652;2023-02-28T07:19:44;27.74;50.56
63899;HTU21D;50070;-32.946;-60.652;2023-02-28T07:22:11;27.88;49.76
63899;HTU21D;50070;-32.946;-60.652;2023-02-28T07:24:37;28.09;49.39
63899;HTU21D;50070;-32.946;-60.652;2023-02-28T07:27:04;28.04;49.39
63899;HTU21D;50070;-32.946;-60.652;2023-02-28T07:29:31;28.04;48.70
63899;HTU21D;50070;-32.946;-60.652;2023-02-28T07:31:58;27.93;49.40
63899;HTU21D;50070;-32.946;-60.652;2023-02-28T07:34:24;28.18;48.82
63899;HTU21D;50070;-32.946;-60.652;2023-02-28T07:36:56;28.33;47.90
63899;HTU21D;50070;-32.946;-60.652;2023-02-28T07:39:22;28.09;49.36
63899;HTU21D;50070;-32.946;-60.652;2023-02-28T07:41:49;28.06;49.47
63899;HTU21D;50070;-32.946;-60.652;2023-02-28T07:44:16;28.11;49.25
63899;HTU21D;50070;-32.946;-60.652;2023-02-28T07:46:43;28.04;49.95
63899;HTU21D;50070;-32.946;-60.652;2023-02-28T07:49:10;28.08;49.55
63899;HTU21D;50070;-32.946;-60.652;2023-02-28T07:51:36;28.08;50.27
63899;HTU21D;50070;-32.946;-60.652;2023-02-28T07:54:05;27.86;50.97
63899;HTU21D;50070;-32.946;-60.652;2023-02-28T07:56:33;27.83;51.24
63899;HTU21D;50070;-32.946;-60.652;2023-02-28T07:59:00;27.80;51.40
63899;HTU21D;50070;-32.946;-60.652;2023-02-28T08:01:27;27.74;51.79
63899;HTU21D;50070;-32.946;-60.652;2023-02-28T08:03:54;27.86;51.33
63899;HTU21D;50070;-32.946;-60.652;2023-02-28T08:06:24;27.81;52.35
63899;HTU21D;50070;-32.946;-60.652;2023-02-28T08:08:52;27.97;51.94
63899;HTU21D;50070;-32.946;-60.652;2023-02-28T08:11:19;27.73;52.91
63899;HTU21D;50070;-32.946;-60.652;2023-02-28T08:13:46;27.74;54.89
63899;HTU21D;50070;-32.946;-60.652;2023-02-28T08:16:14;27.63;54.03
63899;HTU21D;50070;-32.946;-60.652;2023-02-28T08:18:49;27.81;53.10
63899;HTU21D;50070;-32.946;-60.652;2023-02-28T08:21:17;27.58;54.74
63899;HTU21D;50070;-32.946;-60.652;2023-02-28T08:23:46;27.71;54.43
63899;HTU21D;50070;-32.946;-60.652;2023-02-28T08:26:12;27.54;55.64
63899;HTU21D;50070;-32.946;-60.652;2023-02-28T08:28:39;27.16;57.12
63899;HTU21D;50070;-32.946;-60.652;2023-02-28T08:31:10;26.95;58.45
63899;HTU21D;50070;-32.946;-60.652;2023-02-28T08:33:38;27.09;58.09
63899;HTU21D;50070;-32.946;-60.652;2023-02-28T08:36:06;26.50;59.66
63899;HTU21D;50070;-32.946;-60.652;2023-02-28T08:38:33;26.70;58.56
63899;HTU21D;50070;-32.946;-60.652;2023-02-28T08:41:00;26.48;59.10
63899;HTU21D;50070;-32.946;-60.652;2023-02-28T08:43:28;26.06;60.73
63899;HTU21D;50070;-32.946;-60.652;2023-02-28T08:45:55;26.28;59.70
63899;HTU21D;50070;-32.946;-60.652;2023-02-28T08:48:30;25.71;61.97
63899;HTU21D;50070;-32.946;-60.652;2023-02-28T08:51:02;25.95;61.28
63899;HTU21D;50070;-32.946;-60.652;2023-02-28T08:53:29;25.84;61.66
63899;HTU21D;50070;-32.946;-60.652;2023-02-28T08:56:01;25.74;62.02
63899;HTU21D;50070;-32.946;-60.652;2023-02-28T08:58:29;25.86;61.57
63899;HTU21D;50070;-32.946;-60.652;2023-02-28T09:00:56;25.91;61.44
63899;HTU21D;50070;-32.946;-60.652;2023-02-28T09:03:23;25.91;61.67
63899;HTU21D;50070;-32.946;-60.652;2023-02-28T09:05:58;26.01;61.54
63899;HTU21D;50070;-32.946;-60.652;2023-02-28T09:08:27;26.39;59.95
63899;HTU21D;50070;-32.946;-60.652;2023-02-28T09:10:54;26.45;59.96
63899;HTU21D;50070;-32.946;-60.652;2023-02-28T09:13:23;26.55;59.67
63899;HTU21D;50070;-32.946;-60.652;2023-02-28T09:15:51;26.52;59.80
63899;HTU21D;50070;-32.946;-60.652;2023-02-28T09:18:17;26.55;59.64
63899;HTU21D;50070;-32.946;-60.652;2023-02-28T09:20:45;26.65;58.94
63899;HTU21D;50070;-32.946;-60.652;2023-02-28T09:23:12;26.46;60.18
63899;HTU21D;50070;-32.946;-60.652;2023-02-28T09:25:50;26.42;59.89
63899;HTU21D;50070;-32.946;-60.652;2023-02-28T09:28:17;26.67;59.53
63899;HTU21D;50070;-32.946;-60.652;2023-02-28T09:30:46;26.46;59.80
63899;HTU21D;50070;-32.946;-60.652;2023-02-28T09:33:14;26.33;60.54
63899;HTU21D;50070;-32.946;-60.652;2023-02-28T09:35:40;26.36;60.19
63899;HTU21D;50070;-32.946;-60.652;2023-02-28T09:38:09;26.20;60.83
63899;HTU21D;50070;-32.946;-60.652;2023-02-28T09:40:50;26.20;61.12
63899;HTU21D;50070;-32.946;-60.652;2023-02-28T09:43:21;26.08;61.61
63899;HTU21D;50070;-32.946;-60.652;2023-02-28T09:45:59;26.06;62.73
63899;HTU21D;50070;-32.946;-60.652;2023-02-28T09:48:32;26.17;62.24
63899;HTU21D;50070;-32.946;-60.652;2023-02-28T09:53:53;26.16;62.86
63899;HTU21D;50070;-32.946;-60.652;2023-02-28T09:56:36;26.11;63.34
63899;HTU21D;50070;-32.946;-60.652;2023-02-28T10:04:53;26.24;62.31
63899;HTU21D;50070;-32.946;-60.652;2023-02-28T10:10:41;26.27;61.12
63899;HTU21D;50070;-32.946;-60.652;2023-02-28T10:16:11;26.45;59.93
63899;HTU21D;50070;-32.946;-60.652;2023-02-28T10:21:17;26.48;59.83
63899;HTU21D;50070;-32.946;-60.652;2023-02-28T10:23:46;26.27;60.86
63899;HTU21D;50070;-32.946;-60.652;2023-02-28T10:26:15;26.37;61.15
63899;HTU21D;50070;-32.946;-60.652;2023-02-28T10:28:43;26.53;60.22
63899;HTU21D;50070;-32.946;-60.652;2023-02-28T10:31:14;26.54;60.47
63899;HTU21D;50070;-32.946;-60.652;2023-02-28T10:33:42;26.50;60.23
63899;HTU21D;50070;-32.946;-60.652;2023-02-28T10:36:15;26.54;59.32
63899;HTU21D;50070;-32.946;-60.652;2023-02-28T10:38:44;26.36;59.63
63899;HTU21D;50070;-32.946;-60.652;2023-02-28T10:41:15;26.58;58.76
63899;HTU21D;50070;-32.946;-60.652;2023-02-28T10:43:43;26.45;59.15
63899;HTU21D;50070;-32.946;-60.652;2023-02-28T10:46:16;26.64;58.45
63899;HTU21D;50070;-32.946;-60.652;2023-02-28T10:49:05;26.61;57.90
63899;HTU21D;50070;-32.946;-60.652;2023-02-28T10:51:40;26.79;57.33
63899;HTU21D;50070;-32.946;-60.652;2023-02-28T10:54:36;26.79;57.14
63899;HTU21D;50070;-32.946;-60.652;2023-02-28T10:59:34;27.04;56.38
63899;HTU21D;50070;-32.946;-60.652;2023-02-28T11:02:01;26.96;56.15
63899;HTU21D;50070;-32.946;-60.652;2023-02-28T11:07:22;26.94;57.24
63899;HTU21D;50070;-32.946;-60.652;2023-02-28T11:09:54;27.15;56.10
63899;HTU21D;50070;-32.946;-60.652;2023-02-28T11:12:25;27.31;55.74
63899;HTU21D;50070;-32.946;-60.652;2023-02-28T11:15:00;27.15;56.55
63899;HTU21D;50070;-32.946;-60.652;2023-02-28T11:17:30;27.09;56.88
63899;HTU21D;50070;-32.946;-60.652;2023-02-28T11:20:00;27.13;57.43
63899;HTU21D;50070;-32.946;-60.652;2023-02-28T11:22:32;27.10;58.05
63899;HTU21D;50070;-32.946;-60.652;2023-02-28T11:25:07;27.32;56.90
63899;HTU21D;50070;-32.946;-60.652;2023-02-28T11:27:50;27.52;56.73
63899;HTU21D;50070;-32.946;-60.652;2023-02-28T11:30:46;27.67;56.61
63899;HTU21D;50070;-32.946;-60.652;2023-02-28T11:36:29;27.68;57.36
63899;HTU21D;50070;-32.946;-60.652;2023-02-28T11:39:03;27.56;58.16
63899;HTU21D;50070;-32.946;-60.652;2023-02-28T11:47:38;27.58;58.90
63899;HTU21D;50070;-32.946;-60.652;2023-02-28T11:50:28;27.93;57.80
63899;HTU21D;50070;-32.946;-60.652;2023-02-28T11:53:03;27.96;57.55
63899;HTU21D;50070;-32.946;-60.652;2023-02-28T11:55:36;28.14;57.01
63899;HTU21D;50070;-32.946;-60.652;2023-02-28T12:06:50;28.24;57.76
63899;HTU21D;50070;-32.946;-60.652;2023-02-28T12:12:38;27.99;59.52
63899;HTU21D;50070;-32.946;-60.652;2023-02-28T12:20:37;28.30;57.67
63899;HTU21D;50070;-32.946;-60.652;2023-02-28T12:26:42;28.60;56.90
63899;HTU21D;50070;-32.946;-60.652;2023-02-28T12:31:40;29.02;55.42
63899;HTU21D;50070;-32.946;-60.652;2023-02-28T12:34:15;28.54;57.10
63899;HTU21D;50070;-32.946;-60.652;2023-02-28T12:36:44;28.55;56.76
63899;HTU21D;50070;-32.946;-60.652;2023-02-28T12:41:59;29.06;54.97
63899;HTU21D;50070;-32.946;-60.652;2023-02-28T12:44:44;29.21;54.33
63899;HTU21D;50070;-32.946;-60.652;2023-02-28T12:47:18;29.01;55.71
63899;HTU21D;50070;-32.946;-60.652;2023-02-28T12:50:06;28.61;55.68
63899;HTU21D;50070;-32.946;-60.652;2023-02-28T12:52:57;28.91;54.99
63899;HTU21D;50070;-32.946;-60.652;2023-02-28T12:55:28;28.76;54.85
63899;HTU21D;50070;-32.946;-60.652;2023-02-28T13:01:17;29.66;52.96
63899;HTU21D;50070;-32.946;-60.652;2023-02-28T13:09:39;30.19;50.51
63899;HTU21D;50070;-32.946;-60.652;2023-02-28T13:12:17;31.34;47.10
63899;HTU21D;50070;-32.946;-60.652;2023-02-28T13:14:44;31.76;45.72
63899;HTU21D;50070;-32.946;-60.652;2023-02-28T13:17:19;32.09;44.73
63899;HTU21D;50070;-32.946;-60.652;2023-02-28T13:19:57;30.68;48.02
63899;HTU21D;50070;-32.946;-60.652;2023-02-28T13:22:42;30.82;47.39
63899;HTU21D;50070;-32.946;-60.652;2023-02-28T13:31:19;31.02;46.73
63899;HTU21D;50070;-32.946;-60.652;2023-02-28T13:42:23;31.56;44.38
63899;HTU21D;50070;-32.946;-60.652;2023-02-28T13:47:43;31.61;44.81
63899;HTU21D;50070;-32.946;-60.652;2023-02-28T13:55:42;31.39;45.49
63899;HTU21D;50070;-32.946;-60.652;2023-02-28T13:58:34;32.14;45.12
63899;HTU21D;50070;-32.946;-60.652;2023-02-28T14:01:30;31.81;46.40
63899;HTU21D;50070;-32.946;-60.652;2023-02-28T14:04:11;32.54;44.77
63899;HTU21D;50070;-32.946;-60.652;2023-02-28T14:06:50;31.78;46.62
63899;HTU21D;50070;-32.946;-60.652;2023-02-28T14:15:04;31.78;46.35
63899;HTU21D;50070;-32.946;-60.652;2023-02-28T14:17:32;31.61;46.68
63899;HTU21D;50070;-32.946;-60.652;2023-02-28T14:19:59;31.96;45.67
63899;HTU21D;50070;-32.946;-60.652;2023-02-28T14:23:21;32.45;44.83
63899;HTU21D;50070;-32.946;-60.652;2023-02-28T14:31:13;32.70;43.71
63899;HTU21D;50070;-32.946;-60.652;2023-02-28T14:33:59;32.73;43.04
63899;HTU21D;50070;-32.946;-60.652;2023-02-28T14:36:36;33.06;42.52
63899;HTU21D;50070;-32.946;-60.652;2023-02-28T14:39:25;33.20;41.94
63899;HTU21D;50070;-32.946;-60.652;2023-02-28T14:42:03;33.31;41.39
63899;HTU21D;50070;-32.946;-60.652;2023-02-28T14:44:40;33.35;41.60
63899;HTU21D;50070;-32.946;-60.652;2023-02-28T14:47:14;33.38;40.92
63899;HTU21D;50070;-32.946;-60.652;2023-02-28T14:49:46;33.23;42.19
63899;HTU21D;50070;-32.946;-60.652;2023-02-28T14:52:31;33.35;41.85
63899;HTU21D;50070;-32.946;-60.652;2023-02-28T14:55:01;33.30;42.16
63899;HTU21D;50070;-32.946;-60.652;2023-02-28T14:57:31;33.40;41.70
63899;HTU21D;50070;-32.946;-60.652;2023-02-28T15:00:01;33.73;40.39
63899;HTU21D;50070;-32.946;-60.652;2023-02-28T15:02:30;33.90;40.35
63899;HTU21D;50070;-32.946;-60.652;2023-02-28T15:05:00;34.10;39.48
63899;HTU21D;50070;-32.946;-60.652;2023-02-28T15:07:27;33.87;40.84
63899;HTU21D;50070;-32.946;-60.652;2023-02-28T15:10:27;34.04;39.82
63899;HTU21D;50070;-32.946;-60.652;2023-02-28T15:13:06;33.44;41.36
63899;HTU21D;50070;-32.946;-60.652;2023-02-28T15:18:30;34.33;39.88
63899;HTU21D;50070;-32.946;-60.652;2023-02-28T15:21:03;34.32;39.14
63899;HTU21D;50070;-32.946;-60.652;2023-02-28T15:23:34;34.46;39.03
63899;HTU21D;50070;-32.946;-60.652;2023-02-28T15:26:03;34.23;38.91
63899;HTU21D;50070;-32.946;-60.652;2023-02-28T15:28:30;34.66;38.33
63899;HTU21D;50070;-32.946;-60.652;2023-02-28T15:31:00;34.80;38.08
63899;HTU21D;50070;-32.946;-60.652;2023-02-28T15:33:29;34.95;37.67
63899;HTU21D;50070;-32.946;-60.652;2023-02-28T15:36:28;35.00;37.79
63899;HTU21D;50070;-32.946;-60.652;2023-02-28T15:38:56;34.91;38.21
63899;HTU21D;50070;-32.946;-60.652;2023-02-28T15:41:28;34.66;38.14
63899;HTU21D;50070;-32.946;-60.652;2023-02-28T15:44:15;34.59;38.27
63899;HTU21D;50070;-32.946;-60.652;2023-02-28T15:47:00;34.60;38.75
63899;HTU21D;50070;-32.946;-60.652;2023-02-28T15:49:28;34.82;38.80
63899;HTU21D;50070;-32.946;-60.652;2023-02-28T15:51:59;34.79;39.27
63899;HTU21D;50070;-32.946;-60.652;2023-02-28T15:54:33;34.84;38.65
63899;HTU21D;50070;-32.946;-60.652;2023-02-28T15:57:05;35.01;38.20
63899;HTU21D;50070;-32.946;-60.652;2023-02-28T15:59:36;34.95;39.06
63899;HTU21D;50070;-32.946;-60.652;2023-02-28T16:04:37;34.96;38.91
63899;HTU21D;50070;-32.946;-60.652;2023-02-28T16:07:11;34.66;39.15
63899;HTU21D;50070;-32.946;-60.652;2023-02-28T16:09:44;34.54;38.88
63899;HTU21D;50070;-32.946;-60.652;2023-02-28T16:12:11;34.96;37.86
63899;HTU21D;50070;-32.946;-60.652;2023-02-28T16:14:40;34.41;38.94
63899;HTU21D;50070;-32.946;-60.652;2023-02-28T16:17:28;34.67;39.09
63899;HTU21D;50070;-32.946;-60.652;2023-02-28T16:20:05;35.14;37.49
63899;HTU21D;50070;-32.946;-60.652;2023-02-28T16:22:32;34.95;36.67
63899;HTU21D;50070;-32.946;-60.652;2023-02-28T16:24:59;35.08;36.86
63899;HTU21D;50070;-32.946;-60.652;2023-02-28T16:27:30;35.40;35.71
63899;HTU21D;50070;-32.946;-60.652;2023-02-28T16:29:57;34.93;37.25
63899;HTU21D;50070;-32.946;-60.652;2023-02-28T16:32:24;35.40;36.21
63899;HTU21D;50070;-32.946;-60.652;2023-02-28T16:34:51;35.35;35.75
63899;HTU21D;50070;-32.946;-60.652;2023-02-28T16:37:18;35.42;36.24
63899;HTU21D;50070;-32.946;-60.652;2023-02-28T16:39:45;34.95;36.76
63899;HTU21D;50070;-32.946;-60.652;2023-02-28T16:42:16;34.96;36.70
63899;HTU21D;50070;-32.946;-60.652;2023-02-28T16:44:47;35.27;36.42
63899;HTU21D;50070;-32.946;-60.652;2023-02-28T16:47:14;35.54;35.59
63899;HTU21D;50070;-32.946;-60.652;2023-02-28T16:49:41;35.40;35.21
63899;HTU21D;50070;-32.946;-60.652;2023-02-28T16:52:10;34.86;35.23
63899;HTU21D;50070;-32.946;-60.652;2023-02-28T16:54:38;34.94;34.84
63899;HTU21D;50070;-32.946;-60.652;2023-02-28T16:57:20;34.91;34.45
63899;HTU21D;50070;-32.946;-60.652;2023-02-28T16:59:51;35.00;32.73
63899;HTU21D;50070;-32.946;-60.652;2023-02-28T17:02:19;34.92;32.02
63899;HTU21D;50070;-32.946;-60.652;2023-02-28T17:04:46;35.27;32.08
63899;HTU21D;50070;-32.946;-60.652;2023-02-28T17:07:15;35.22;30.18
63899;HTU21D;50070;-32.946;-60.652;2023-02-28T17:09:43;35.28;30.02
63899;HTU21D;50070;-32.946;-60.652;2023-02-28T17:12:10;35.28;28.93
63899;HTU21D;50070;-32.946;-60.652;2023-02-28T17:14:37;35.63;29.22
63899;HTU21D;50070;-32.946;-60.652;2023-02-28T17:17:09;35.47;28.55
63899;HTU21D;50070;-32.946;-60.652;2023-02-28T17:19:36;35.47;29.26
63899;HTU21D;50070;-32.946;-60.652;2023-02-28T17:22:04;35.40;30.30
63899;HTU21D;50070;-32.946;-60.652;2023-02-28T17:24:31;35.18;30.20
63899;HTU21D;50070;-32.946;-60.652;2023-02-28T17:26:57;35.24;30.03
63899;HTU21D;50070;-32.946;-60.652;2023-02-28T17:29:24;35.44;30.30
63899;HTU21D;50070;-32.946;-60.652;2023-02-28T17:31:51;34.98;29.85
63899;HTU21D;50070;-32.946;-60.652;2023-02-28T17:34:18;34.91;29.70